sensor_id;sensor_type;location;lat;lon;timestamp;pressure;altitude;pressure_sealevel;temperature;humidity
69535;BME280;56754;51.568;5.048;2023-02-13T00:00:29;103678.00;;;13.00;60.43
69535;BME280;56754;51.568;5.048;2023-02-13T00:02:54;103669.69;;;13.01;60.35
69535;BME280;56754;51.568;5.048;2023-02-13T00:05:20;103670.50;;;13.02;60.37
69535;BME280;56754;51.568;5.048;2023-02-13T00:07:45;103666.75;;;13.03;60.30
69535;BME280;56754;51.568;5.048;2023-02-13T00:10:10;103659.25;;;13.05;60.24
69535;BME280;56754;51.568;5.048;2023-02-13T00:12:36;103668.66;;;13.07;60.18
69535;BME280;56754;51.568;5.048;2023-02-13T00:15:02;103667.59;;;13.08;60.31
69535;BME280;56754;51.568;5.048;2023-02-13T00:17:27;103663.84;;;13.09;59.78
69535;BME280;56754;51.568;5.048;2023-02-13T00:19:52;103667.84;;;13.07;59.21
69535;BME280;56754;51.568;5.048;2023-02-13T00:22:18;103669.44;;;13.03;58.69
69535;BME280;56754;51.568;5.048;2023-02-13T00:24:43;103655.97;;;12.97;58.65
69535;BME280;56754;51.568;5.048;2023-02-13T00:27:08;103660.22;;;12.93;58.63
69535;BME280;56754;51.568;5.048;2023-02-13T00:29:34;103655.63;;;12.89;58.36
69535;BME280;56754;51.568;5.048;2023-02-13T00:31:59;103655.31;;;12.85;58.37
69535;BME280;56754;51.568;5.048;2023-02-13T00:34:24;103648.84;;;12.81;58.53
69535;BME280;56754;51.568;5.048;2023-02-13T00:36:49;103649.38;;;12.78;58.57
69535;BME280;56754;51.568;5.048;2023-02-13T00:39:15;103647.19;;;12.75;58.58
69535;BME280;56754;51.568;5.048;2023-02-13T00:41:40;103643.16;;;12.72;58.63
69535;BME280;56754;51.568;5.048;2023-02-13T00:44:05;103647.16;;;12.70;58.89
69535;BME280;56754;51.568;5.048;2023-02-13T00:46:31;103646.56;;;12.68;58.95
69535;BME280;56754;51.568;5.048;2023-02-13T00:48:56;103652.22;;;12.66;58.83
69535;BME280;56754;51.568;5.048;2023-02-13T00:51:21;103645.47;;;12.64;59.12
69535;BME280;56754;51.568;5.048;2023-02-13T00:53:49;103641.41;;;12.61;59.39
69535;BME280;56754;51.568;5.048;2023-02-13T00:56:15;103643.31;;;12.61;59.34
69535;BME280;56754;51.568;5.048;2023-02-13T00:58:40;103645.41;;;12.59;59.53
69535;BME280;56754;51.568;5.048;2023-02-13T01:01:06;103637.88;;;12.56;59.69
69535;BME280;56754;51.568;5.048;2023-02-13T01:03:31;103634.38;;;12.55;59.74
69535;BME280;56754;51.568;5.048;2023-02-13T01:05:57;103637.31;;;12.53;59.91
69535;BME280;56754;51.568;5.048;2023-02-13T01:08:22;103633.25;;;12.51;59.85
69535;BME280;56754;51.568;5.048;2023-02-13T01:10:48;103644.25;;;12.49;59.87
69535;BME280;56754;51.568;5.048;2023-02-13T01:13:15;103642.88;;;12.47;59.91
69535;BME280;56754;51.568;5.048;2023-02-13T01:15:41;103642.31;;;12.45;60.10
69535;BME280;56754;51.568;5.048;2023-02-13T01:18:06;103646.34;;;12.42;60.17
69535;BME280;56754;51.568;5.048;2023-02-13T01:20:32;103643.09;;;12.40;60.18
69535;BME280;56754;51.568;5.048;2023-02-13T01:22:57;103639.03;;;12.38;60.31
69535;BME280;56754;51.568;5.048;2023-02-13T01:25:23;103636.59;;;12.36;60.13
69535;BME280;56754;51.568;5.048;2023-02-13T01:27:48;103641.44;;;12.34;60.51
69535;BME280;56754;51.568;5.048;2023-02-13T01:30:15;103634.69;;;12.32;60.41
69535;BME280;56754;51.568;5.048;2023-02-13T01:32:42;103632.25;;;12.30;60.60
69535;BME280;56754;51.568;5.048;2023-02-13T01:35:09;103638.13;;;12.27;60.67
69535;BME280;56754;51.568;5.048;2023-02-13T01:37:35;103629.53;;;12.25;60.64
69535;BME280;56754;51.568;5.048;2023-02-13T01:40:01;103634.31;;;12.23;60.83
69535;BME280;56754;51.568;5.048;2023-02-13T01:42:29;103629.19;;;12.21;60.88
69535;BME280;56754;51.568;5.048;2023-02-13T01:45:00;103625.19;;;12.19;61.08
69535;BME280;56754;51.568;5.048;2023-02-13T01:52:43;103622.66;;;12.12;61.29
69535;BME280;56754;51.568;5.048;2023-02-13T01:55:10;103627.50;;;12.10;61.51
69535;BME280;56754;51.568;5.048;2023-02-13T01:57:38;103628.78;;;12.07;61.59
69535;BME280;56754;51.568;5.048;2023-02-13T02:00:07;103631.72;;;12.06;61.70
69535;BME280;56754;51.568;5.048;2023-02-13T02:02:37;103630.09;;;12.05;61.74
69535;BME280;56754;51.568;5.048;2023-02-13T02:05:05;103630.59;;;12.02;61.96
69535;BME280;56754;51.568;5.048;2023-02-13T02:07:31;103625.47;;;12.00;62.24
69535;BME280;56754;51.568;5.048;2023-02-13T02:10:00;103629.22;;;11.99;62.14
69535;BME280;56754;51.568;5.048;2023-02-13T02:15:11;103629.16;;;11.94;62.44
69535;BME280;56754;51.568;5.048;2023-02-13T02:17:36;103621.38;;;11.93;62.67
69535;BME280;56754;51.568;5.048;2023-02-13T02:20:25;103617.06;;;11.92;62.68
69535;BME280;56754;51.568;5.048;2023-02-13T02:42:06;103612.00;;;11.73;63.61
69535;BME280;56754;51.568;5.048;2023-02-13T02:49:40;103615.09;;;11.65;63.77
69535;BME280;56754;51.568;5.048;2023-02-13T02:52:19;103609.44;;;11.61;63.92
69535;BME280;56754;51.568;5.048;2023-02-13T02:54:51;103612.38;;;11.60;63.89
69535;BME280;56754;51.568;5.048;2023-02-13T02:57:23;103608.53;;;11.56;64.10
69535;BME280;56754;51.568;5.048;2023-02-13T02:59:52;103606.38;;;11.53;64.33
69535;BME280;56754;51.568;5.048;2023-02-13T03:02:18;103610.34;;;11.50;64.26
69535;BME280;56754;51.568;5.048;2023-02-13T03:05:02;103607.34;;;11.47;64.36
69535;BME280;56754;51.568;5.048;2023-02-13T03:07:28;103605.16;;;11.44;64.50
69535;BME280;56754;51.568;5.048;2023-02-13T03:10:00;103598.44;;;11.41;64.42
69535;BME280;56754;51.568;5.048;2023-02-13T03:12:36;103597.06;;;11.38;65.04
69535;BME280;56754;51.568;5.048;2023-02-13T03:15:04;103596.75;;;11.35;64.92
69535;BME280;56754;51.568;5.048;2023-02-13T03:17:30;103594.56;;;11.32;65.07
69535;BME280;56754;51.568;5.048;2023-02-13T03:46:17;103600.75;;;10.99;66.32
69535;BME280;56754;51.568;5.048;2023-02-13T03:48:44;103602.88;;;10.97;66.41
69535;BME280;56754;51.568;5.048;2023-02-13T03:51:15;103610.34;;;10.95;66.47
69535;BME280;56754;51.568;5.048;2023-02-13T03:53:45;103604.41;;;10.92;66.42
69535;BME280;56754;51.568;5.048;2023-02-13T03:56:12;103609.19;;;10.90;66.79
69535;BME280;56754;51.568;5.048;2023-02-13T03:58:42;103603.53;;;10.87;66.69
69535;BME280;56754;51.568;5.048;2023-02-13T04:01:11;103611.78;;;10.85;66.47
69535;BME280;56754;51.568;5.048;2023-02-13T04:06:12;103606.59;;;10.79;66.98
69535;BME280;56754;51.568;5.048;2023-02-13T04:08:38;103597.19;;;10.76;66.67
69535;BME280;56754;51.568;5.048;2023-02-13T04:11:09;103593.38;;;10.72;66.96
69535;BME280;56754;51.568;5.048;2023-02-13T04:13:42;103597.34;;;10.69;67.11
69535;BME280;56754;51.568;5.048;2023-02-13T04:16:23;103596.53;;;10.69;67.02
69535;BME280;56754;51.568;5.048;2023-02-13T04:18:52;103597.81;;;10.66;67.32
69535;BME280;56754;51.568;5.048;2023-02-13T04:21:19;103601.56;;;10.65;66.97
69535;BME280;56754;51.568;5.048;2023-02-13T04:23:44;103599.13;;;10.64;67.50
69535;BME280;56754;51.568;5.048;2023-02-13T04:26:15;103588.91;;;10.61;66.83
69535;BME280;56754;51.568;5.048;2023-02-13T04:28:42;103595.53;;;10.58;67.40
69535;BME280;56754;51.568;5.048;2023-02-13T04:31:07;103591.25;;;10.57;67.53
69535;BME280;56754;51.568;5.048;2023-02-13T04:33:32;103591.47;;;10.56;67.58
69535;BME280;56754;51.568;5.048;2023-02-13T04:35:58;103590.13;;;10.53;67.58
69535;BME280;56754;51.568;5.048;2023-02-13T04:38:23;103584.78;;;10.53;67.56
69535;BME280;56754;51.568;5.048;2023-02-13T04:40:48;103589.53;;;10.51;67.96
69535;BME280;56754;51.568;5.048;2023-02-13T04:43:13;103593.28;;;10.50;67.92
69535;BME280;56754;51.568;5.048;2023-02-13T04:45:39;103590.03;;;10.48;67.73
69535;BME280;56754;51.568;5.048;2023-02-13T04:48:04;103592.69;;;10.48;68.07
69535;BME280;56754;51.568;5.048;2023-02-13T04:50:29;103588.63;;;10.45;67.52
69535;BME280;56754;51.568;5.048;2023-02-13T04:52:56;103586.19;;;10.44;68.12
69535;BME280;56754;51.568;5.048;2023-02-13T04:55:23;103581.91;;;10.43;67.75
69535;BME280;56754;51.568;5.048;2023-02-13T04:57:51;103584.84;;;10.41;68.25
69535;BME280;56754;51.568;5.048;2023-02-13T05:00:17;103582.38;;;10.40;67.73
69535;BME280;56754;51.568;5.048;2023-02-13T05:02:42;103582.38;;;10.40;68.32
69535;BME280;56754;51.568;5.048;2023-02-13T05:05:08;103576.47;;;10.38;68.06
69535;BME280;56754;51.568;5.048;2023-02-13T05:07:33;103585.53;;;10.37;68.26
69535;BME280;56754;51.568;5.048;2023-02-13T05:09:58;103575.09;;;10.35;68.41
69535;BME280;56754;51.568;5.048;2023-02-13T05:12:23;103583.13;;;10.35;68.22
69535;BME280;56754;51.568;5.048;2023-02-13T05:14:49;103582.28;;;10.35;68.50
69535;BME280;56754;51.568;5.048;2023-02-13T05:17:14;103581.47;;;10.34;68.27
69535;BME280;56754;51.568;5.048;2023-02-13T05:19:39;103580.09;;;10.32;68.53
69535;BME280;56754;51.568;5.048;2023-02-13T05:22:04;103589.97;;;10.31;68.19
69535;BME280;56754;51.568;5.048;2023-02-13T05:24:30;103587.56;;;10.30;68.42
69535;BME280;56754;51.568;5.048;2023-02-13T05:26:55;103590.22;;;10.30;68.35
69535;BME280;56754;51.568;5.048;2023-02-13T05:29:20;103597.41;;;10.29;68.53
69535;BME280;56754;51.568;5.048;2023-02-13T05:31:53;103592.31;;;10.28;68.52
69535;BME280;56754;51.568;5.048;2023-02-13T05:34:23;103587.19;;;10.26;68.46
69535;BME280;56754;51.568;5.048;2023-02-13T05:36:48;103584.75;;;10.24;68.33
69535;BME280;56754;51.568;5.048;2023-02-13T05:39:14;103582.31;;;10.23;68.32
69535;BME280;56754;51.568;5.048;2023-02-13T05:41:41;103578.28;;;10.20;68.52
69535;BME280;56754;51.568;5.048;2023-02-13T05:44:07;103585.72;;;10.18;67.95
69535;BME280;56754;51.568;5.048;2023-02-13T05:46:33;103575.25;;;10.17;68.90
69535;BME280;56754;51.568;5.048;2023-02-13T05:48:58;103573.38;;;10.17;69.04
69535;BME280;56754;51.568;5.048;2023-02-13T05:51:23;103583.25;;;10.17;68.85
69535;BME280;56754;51.568;5.048;2023-02-13T05:53:49;103587.81;;;10.16;69.40
69535;BME280;56754;51.568;5.048;2023-02-13T05:56:14;103586.19;;;10.15;69.18
69535;BME280;56754;51.568;5.048;2023-02-13T05:58:40;103587.22;;;10.14;69.32
69535;BME280;56754;51.568;5.048;2023-02-13T06:01:05;103586.41;;;10.14;69.19
69535;BME280;56754;51.568;5.048;2023-02-13T06:03:31;103586.66;;;10.12;69.16
69535;BME280;56754;51.568;5.048;2023-02-13T06:05:57;103593.03;;;10.11;68.84
69535;BME280;56754;51.568;5.048;2023-02-13T06:08:23;103603.72;;;10.11;69.10
69535;BME280;56754;51.568;5.048;2023-02-13T06:10:49;103597.84;;;10.09;69.24
69535;BME280;56754;51.568;5.048;2023-02-13T06:13:15;103590.03;;;10.08;69.43
69535;BME280;56754;51.568;5.048;2023-02-13T06:15:40;103598.88;;;10.08;68.98
69535;BME280;56754;51.568;5.048;2023-02-13T06:18:06;103596.44;;;10.07;69.13
69535;BME280;56754;51.568;5.048;2023-02-13T06:20:31;103585.75;;;10.07;69.21
69535;BME280;56754;51.568;5.048;2023-02-13T06:22:57;103591.31;;;10.05;69.23
69535;BME280;56754;51.568;5.048;2023-02-13T06:25:22;103594.00;;;10.05;69.50
69535;BME280;56754;51.568;5.048;2023-02-13T06:27:48;103591.31;;;10.05;69.58
69535;BME280;56754;51.568;5.048;2023-02-13T06:30:14;103595.28;;;10.02;68.96
69535;BME280;56754;51.568;5.048;2023-02-13T06:32:40;103597.16;;;10.02;69.25
69535;BME280;56754;51.568;5.048;2023-02-13T06:35:05;103601.69;;;10.01;69.40
69535;BME280;56754;51.568;5.048;2023-02-13T06:37:31;103605.41;;;10.00;68.99
69535;BME280;56754;51.568;5.048;2023-02-13T06:39:56;103602.97;;;9.99;68.66
69535;BME280;56754;51.568;5.048;2023-02-13T06:42:22;103597.06;;;9.97;69.05
69535;BME280;56754;51.568;5.048;2023-02-13T06:44:47;103594.41;;;9.97;69.16
69535;BME280;56754;51.568;5.048;2023-02-13T06:47:12;103594.63;;;9.95;69.17
69535;BME280;56754;51.568;5.048;2023-02-13T06:49:37;103595.69;;;9.94;69.07
69535;BME280;56754;51.568;5.048;2023-02-13T06:52:03;103589.53;;;9.94;69.25
69535;BME280;56754;51.568;5.048;2023-02-13T06:54:28;103592.19;;;9.94;69.34
69535;BME280;56754;51.568;5.048;2023-02-13T06:56:53;103585.22;;;9.93;69.41
69535;BME280;56754;51.568;5.048;2023-02-13T06:59:19;103588.69;;;9.93;69.38
69535;BME280;56754;51.568;5.048;2023-02-13T07:01:44;103590.22;;;9.89;69.05
69535;BME280;56754;51.568;5.048;2023-02-13T07:04:09;103592.09;;;9.89;69.29
69535;BME280;56754;51.568;5.048;2023-02-13T07:06:34;103590.44;;;9.88;68.75
69535;BME280;56754;51.568;5.048;2023-02-13T07:09:02;103594.75;;;9.89;69.69
69535;BME280;56754;51.568;5.048;2023-02-13T07:11:27;103597.91;;;9.86;69.36
69535;BME280;56754;51.568;5.048;2023-02-13T07:13:53;103594.19;;;9.87;69.41
69535;BME280;56754;51.568;5.048;2023-02-13T07:16:18;103605.91;;;9.86;69.39
69535;BME280;56754;51.568;5.048;2023-02-13T07:18:43;103603.25;;;9.86;69.25
69535;BME280;56754;51.568;5.048;2023-02-13T07:21:08;103605.66;;;9.87;69.71
69535;BME280;56754;51.568;5.048;2023-02-13T07:23:34;103608.59;;;9.86;69.24
69535;BME280;56754;51.568;5.048;2023-02-13T07:26:00;103607.78;;;9.85;69.54
69535;BME280;56754;51.568;5.048;2023-02-13T07:28:27;103598.94;;;9.85;69.23
69535;BME280;56754;51.568;5.048;2023-02-13T07:30:53;103600.78;;;9.84;69.37
69535;BME280;56754;51.568;5.048;2023-02-13T07:33:18;103615.22;;;9.83;68.92
69535;BME280;56754;51.568;5.048;2023-02-13T07:35:50;103609.06;;;9.83;69.23
69535;BME280;56754;51.568;5.048;2023-02-13T07:38:16;103609.88;;;9.83;69.53
69535;BME280;56754;51.568;5.048;2023-02-13T07:40:42;103613.59;;;9.82;68.71
69535;BME280;56754;51.568;5.048;2023-02-13T07:43:07;103612.53;;;9.83;68.82
69535;BME280;56754;51.568;5.048;2023-02-13T07:45:32;103617.13;;;9.99;67.91
69535;BME280;56754;51.568;5.048;2023-02-13T07:47:58;103619.88;;;10.16;67.18
69535;BME280;56754;51.568;5.048;2023-02-13T07:50:23;103622.53;;;10.28;67.04
69535;BME280;56754;51.568;5.048;2023-02-13T07:52:53;103619.25;;;10.38;66.82
69535;BME280;56754;51.568;5.048;2023-02-13T07:55:18;103618.53;;;10.42;66.47
69535;BME280;56754;51.568;5.048;2023-02-13T07:57:43;103615.16;;;10.47;66.29
69535;BME280;56754;51.568;5.048;2023-02-13T08:00:09;103616.28;;;10.51;66.23
69535;BME280;56754;51.568;5.048;2023-02-13T08:02:34;103622.75;;;10.55;66.02
69535;BME280;56754;51.568;5.048;2023-02-13T08:04:59;103612.66;;;10.57;65.99
69535;BME280;56754;51.568;5.048;2023-02-13T08:07:25;103625.53;;;10.60;65.96
69535;BME280;56754;51.568;5.048;2023-02-13T08:09:50;103630.66;;;10.62;65.54
69535;BME280;56754;51.568;5.048;2023-02-13T08:12:16;103617.84;;;10.64;65.87
69535;BME280;56754;51.568;5.048;2023-02-13T08:14:41;103633.66;;;10.65;65.75
69535;BME280;56754;51.568;5.048;2023-02-13T08:17:08;103637.13;;;10.66;65.47
69535;BME280;56754;51.568;5.048;2023-02-13T08:19:33;103635.28;;;10.66;65.54
69535;BME280;56754;51.568;5.048;2023-02-13T08:21:59;103640.63;;;10.66;65.18
69535;BME280;56754;51.568;5.048;2023-02-13T08:24:24;103639.00;;;10.65;65.15
69535;BME280;56754;51.568;5.048;2023-02-13T08:26:49;103638.75;;;10.67;65.08
69535;BME280;56754;51.568;5.048;2023-02-13T08:29:14;103634.22;;;10.67;64.75
69535;BME280;56754;51.568;5.048;2023-02-13T08:31:40;103642.25;;;10.67;64.69
69535;BME280;56754;51.568;5.048;2023-02-13T08:34:05;103636.88;;;10.67;64.72
69535;BME280;56754;51.568;5.048;2023-02-13T08:36:30;103647.38;;;10.69;64.68
69535;BME280;56754;51.568;5.048;2023-02-13T08:38:56;103633.97;;;10.69;64.65
69535;BME280;56754;51.568;5.048;2023-02-13T08:41:21;103646.56;;;10.68;64.58
69535;BME280;56754;51.568;5.048;2023-02-13T08:43:48;103645.50;;;10.69;64.68
69535;BME280;56754;51.568;5.048;2023-02-13T08:46:13;103649.78;;;10.70;64.50
69535;BME280;56754;51.568;5.048;2023-02-13T08:48:39;103644.44;;;10.70;64.49
69535;BME280;56754;51.568;5.048;2023-02-13T08:51:06;103643.41;;;10.72;64.36
69535;BME280;56754;51.568;5.048;2023-02-13T08:53:32;103645.81;;;10.73;64.20
69535;BME280;56754;51.568;5.048;2023-02-13T08:55:57;103646.63;;;10.74;64.33
69535;BME280;56754;51.568;5.048;2023-02-13T08:58:23;103643.72;;;10.75;64.08
69535;BME280;56754;51.568;5.048;2023-02-13T09:00:48;103655.00;;;10.77;64.09
69535;BME280;56754;51.568;5.048;2023-02-13T09:03:14;103658.00;;;10.81;63.87
69535;BME280;56754;51.568;5.048;2023-02-13T09:05:39;103651.84;;;10.80;63.79
69535;BME280;56754;51.568;5.048;2023-02-13T09:08:04;103652.41;;;10.82;63.74
69535;BME280;56754;51.568;5.048;2023-02-13T09:10:31;103649.50;;;10.84;63.61
69535;BME280;56754;51.568;5.048;2023-02-13T09:12:56;103655.41;;;10.86;63.57
69535;BME280;56754;51.568;5.048;2023-02-13T09:15:21;103659.72;;;10.87;63.67
69535;BME280;56754;51.568;5.048;2023-02-13T09:17:47;103659.47;;;10.88;63.42
69535;BME280;56754;51.568;5.048;2023-02-13T09:20:13;103664.34;;;10.91;63.40
69535;BME280;56754;51.568;5.048;2023-02-13T09:22:41;103663.03;;;10.94;63.20
69535;BME280;56754;51.568;5.048;2023-02-13T09:25:07;103663.88;;;10.95;63.03
69535;BME280;56754;51.568;5.048;2023-02-13T09:27:33;103663.59;;;10.96;63.16
69535;BME280;56754;51.568;5.048;2023-02-13T09:30:00;103663.38;;;10.98;63.07
69535;BME280;56754;51.568;5.048;2023-02-13T09:32:26;103660.44;;;10.99;62.89
69535;BME280;56754;51.568;5.048;2023-02-13T09:34:51;103657.53;;;11.01;62.82
69535;BME280;56754;51.568;5.048;2023-02-13T09:37:16;103665.31;;;11.02;62.65
69535;BME280;56754;51.568;5.048;2023-02-13T09:39:42;103660.75;;;11.03;62.80
69535;BME280;56754;51.568;5.048;2023-02-13T09:42:20;103663.22;;;11.04;62.52
69535;BME280;56754;51.568;5.048;2023-02-13T09:44:47;103662.16;;;11.05;62.62
69535;BME280;56754;51.568;5.048;2023-02-13T09:47:28;103665.41;;;11.07;62.57
69535;BME280;56754;51.568;5.048;2023-02-13T09:49:57;103669.69;;;11.08;62.80
69535;BME280;56754;51.568;5.048;2023-02-13T09:52:27;103663.31;;;11.09;62.71
69535;BME280;56754;51.568;5.048;2023-02-13T09:54:56;103662.25;;;11.10;62.63
69535;BME280;56754;51.568;5.048;2023-02-13T09:57:29;103659.31;;;11.12;62.49
69535;BME280;56754;51.568;5.048;2023-02-13T10:00:12;103661.75;;;11.13;63.04
69535;BME280;56754;51.568;5.048;2023-02-13T10:22:15;103657.88;;;11.21;62.85
69535;BME280;56754;51.568;5.048;2023-02-13T10:35:21;103652.03;;;11.24;62.57
69535;BME280;56754;51.568;5.048;2023-02-13T10:37:51;103652.84;;;11.25;62.60
69535;BME280;56754;51.568;5.048;2023-02-13T10:40:18;103649.09;;;11.26;63.12
69535;BME280;56754;51.568;5.048;2023-02-13T10:43:03;103651.19;;;11.24;63.27
69535;BME280;56754;51.568;5.048;2023-02-13T10:46:06;103641.47;;;11.18;63.21
69535;BME280;56754;51.568;5.048;2023-02-13T10:51:17;103644.41;;;11.16;62.87
69535;BME280;56754;51.568;5.048;2023-02-13T10:56:26;103638.78;;;11.18;62.49
69535;BME280;56754;51.568;5.048;2023-02-13T11:01:46;103638.28;;;11.21;62.54
69535;BME280;56754;51.568;5.048;2023-02-13T11:04:17;103624.91;;;11.21;62.74
69535;BME280;56754;51.568;5.048;2023-02-13T11:06:58;103634.31;;;11.23;62.46
69535;BME280;56754;51.568;5.048;2023-02-13T11:09:25;103632.22;;;11.25;62.42
69535;BME280;56754;51.568;5.048;2023-02-13T11:11:51;103627.66;;;11.26;62.55
69535;BME280;56754;51.568;5.048;2023-02-13T11:14:22;103626.59;;;11.27;62.26
69535;BME280;56754;51.568;5.048;2023-02-13T11:19:24;103622.41;;;11.31;62.56
69535;BME280;56754;51.568;5.048;2023-02-13T11:21:56;103622.97;;;11.33;62.87
69535;BME280;56754;51.568;5.048;2023-02-13T11:24:24;103615.47;;;11.35;62.84
69535;BME280;56754;51.568;5.048;2023-02-13T11:26:52;103611.78;;;11.36;62.75
69535;BME280;56754;51.568;5.048;2023-02-13T11:29:33;103608.03;;;11.37;62.77
69535;BME280;56754;51.568;5.048;2023-02-13T11:32:16;103612.56;;;11.36;62.73
69535;BME280;56754;51.568;5.048;2023-02-13T11:34:42;103606.16;;;11.37;62.61
69535;BME280;56754;51.568;5.048;2023-02-13T11:39:36;103607.53;;;11.40;62.68
69535;BME280;56754;51.568;5.048;2023-02-13T11:42:02;103602.19;;;11.40;62.58
69535;BME280;56754;51.568;5.048;2023-02-13T11:44:29;103608.34;;;11.41;62.49
69535;BME280;56754;51.568;5.048;2023-02-13T11:46:59;103603.78;;;11.41;62.51
69535;BME280;56754;51.568;5.048;2023-02-13T11:49:27;103600.06;;;11.42;62.53
69535;BME280;56754;51.568;5.048;2023-02-13T11:51:55;103597.13;;;11.44;62.28
69535;BME280;56754;51.568;5.048;2023-02-13T11:54:40;103593.16;;;11.46;62.52
69535;BME280;56754;51.568;5.048;2023-02-13T11:57:32;103596.94;;;11.50;62.49
69535;BME280;56754;51.568;5.048;2023-02-13T12:00:00;103582.50;;;11.51;62.41
69535;BME280;56754;51.568;5.048;2023-02-13T12:02:30;103586.81;;;11.52;62.35
69535;BME280;56754;51.568;5.048;2023-02-13T12:05:25;103583.63;;;11.55;62.16
69535;BME280;56754;51.568;5.048;2023-02-13T12:07:54;103583.41;;;11.57;62.26
69535;BME280;56754;51.568;5.048;2023-02-13T12:10:29;103571.38;;;11.59;62.12
69535;BME280;56754;51.568;5.048;2023-02-13T12:13:06;103574.88;;;11.60;62.01
69535;BME280;56754;51.568;5.048;2023-02-13T12:15:36;103574.38;;;11.63;62.11
69535;BME280;56754;51.568;5.048;2023-02-13T12:23:40;103565.25;;;11.64;61.97
69535;BME280;56754;51.568;5.048;2023-02-13T12:26:25;103560.47;;;11.66;61.99
69535;BME280;56754;51.568;5.048;2023-02-13T12:32:13;103552.50;;;11.71;61.75
69535;BME280;56754;51.568;5.048;2023-02-13T12:37:41;103540.28;;;11.80;61.69
69535;BME280;56754;51.568;5.048;2023-02-13T12:43:37;103530.50;;;11.91;61.08
69535;BME280;56754;51.568;5.048;2023-02-13T12:46:43;103535.91;;;11.96;60.98
69535;BME280;56754;51.568;5.048;2023-02-13T13:00:24;103521.94;;;12.21;60.56
69535;BME280;56754;51.568;5.048;2023-02-13T13:03:24;103517.44;;;12.27;60.45
69535;BME280;56754;51.568;5.048;2023-02-13T13:06:03;103506.75;;;12.32;60.26
69535;BME280;56754;51.568;5.048;2023-02-13T13:22:49;103510.69;;;12.51;59.85
69535;BME280;56754;51.568;5.048;2023-02-13T13:25:33;103513.91;;;12.53;59.99
69535;BME280;56754;51.568;5.048;2023-02-13T13:28:03;103500.50;;;12.53;60.00
69535;BME280;56754;51.568;5.048;2023-02-13T13:30:34;103494.59;;;12.57;59.64
69535;BME280;56754;51.568;5.048;2023-02-13T13:33:06;103497.84;;;12.59;59.74
69535;BME280;56754;51.568;5.048;2023-02-13T13:35:38;103491.41;;;12.60;59.62
69535;BME280;56754;51.568;5.048;2023-02-13T13:38:14;103497.34;;;12.62;59.77
69535;BME280;56754;51.568;5.048;2023-02-13T13:50:03;103476.44;;;12.64;59.72
69535;BME280;56754;51.568;5.048;2023-02-13T13:52:29;103479.91;;;12.64;59.74
69535;BME280;56754;51.568;5.048;2023-02-13T13:54:56;103484.22;;;12.65;59.78
69535;BME280;56754;51.568;5.048;2023-02-13T13:57:24;103477.53;;;12.68;59.79
69535;BME280;56754;51.568;5.048;2023-02-13T14:00:02;103486.13;;;12.70;59.99
69535;BME280;56754;51.568;5.048;2023-02-13T14:07:48;103481.09;;;12.79;59.40
69535;BME280;56754;51.568;5.048;2023-02-13T14:12:59;103463.66;;;12.86;59.47
69535;BME280;56754;51.568;5.048;2023-02-13T14:20:49;103463.22;;;13.00;59.02
69535;BME280;56754;51.568;5.048;2023-02-13T14:31:28;103452.81;;;13.13;58.80
69535;BME280;56754;51.568;5.048;2023-02-13T14:33:58;103454.97;;;13.16;58.75
69535;BME280;56754;51.568;5.048;2023-02-13T14:36:29;103463.31;;;13.20;58.70
69535;BME280;56754;51.568;5.048;2023-02-13T14:38:57;103455.78;;;13.22;58.66
69535;BME280;56754;51.568;5.048;2023-02-13T14:41:43;103453.44;;;13.26;58.44
69535;BME280;56754;51.568;5.048;2023-02-13T14:46:50;103444.31;;;13.32;58.47
69535;BME280;56754;51.568;5.048;2023-02-13T14:49:25;103449.72;;;13.37;58.35
69535;BME280;56754;51.568;5.048;2023-02-13T14:51:54;103451.88;;;13.40;58.35
69535;BME280;56754;51.568;5.048;2023-02-13T14:54:49;103449.72;;;13.42;58.25
69535;BME280;56754;51.568;5.048;2023-02-13T14:59:51;103438.72;;;13.49;58.01
69535;BME280;56754;51.568;5.048;2023-02-13T15:02:24;103434.69;;;13.51;57.83
69535;BME280;56754;51.568;5.048;2023-02-13T15:04:56;103435.25;;;13.53;58.08
69535;BME280;56754;51.568;5.048;2023-02-13T15:07:26;103432.03;;;13.56;57.78
69535;BME280;56754;51.568;5.048;2023-02-13T15:10:13;103424.50;;;13.58;57.76
69535;BME280;56754;51.568;5.048;2023-02-13T15:12:56;103423.69;;;13.63;57.75
69535;BME280;56754;51.568;5.048;2023-02-13T15:15:33;103428.03;;;13.64;57.49
69535;BME280;56754;51.568;5.048;2023-02-13T15:18:02;103425.84;;;13.66;57.63
69535;BME280;56754;51.568;5.048;2023-02-13T15:20:33;103421.03;;;13.68;57.55
69535;BME280;56754;51.568;5.048;2023-02-13T15:22:59;103420.50;;;13.71;57.50
69535;BME280;56754;51.568;5.048;2023-02-13T15:25:34;103417.56;;;13.73;57.35
69535;BME280;56754;51.568;5.048;2023-02-13T15:28:03;103411.91;;;13.74;57.33
69535;BME280;56754;51.568;5.048;2023-02-13T15:30:31;103408.13;;;13.75;57.48
69535;BME280;56754;51.568;5.048;2023-02-13T15:33:02;103409.47;;;13.78;57.59
69535;BME280;56754;51.568;5.048;2023-02-13T15:35:31;103411.09;;;13.79;57.20
69535;BME280;56754;51.568;5.048;2023-02-13T15:37:58;103408.41;;;13.79;57.19
69535;BME280;56754;51.568;5.048;2023-02-13T15:40:32;103414.31;;;13.81;57.18
69535;BME280;56754;51.568;5.048;2023-02-13T15:43:02;103408.69;;;13.82;57.13
69535;BME280;56754;51.568;5.048;2023-02-13T15:45:28;103406.53;;;13.84;56.88
69535;BME280;56754;51.568;5.048;2023-02-13T15:47:55;103408.41;;;13.84;57.25
69535;BME280;56754;51.568;5.048;2023-02-13T15:50:32;103414.88;;;13.83;57.12
69535;BME280;56754;51.568;5.048;2023-02-13T15:52:59;103412.72;;;13.80;57.36
69535;BME280;56754;51.568;5.048;2023-02-13T15:55:29;103402.75;;;13.75;57.54
69535;BME280;56754;51.568;5.048;2023-02-13T15:57:56;103413.22;;;13.72;57.67